Time;durP1;ratioP1;P1;durP2;ratioP2;P2;SDS_P1;SDS_P2;PMS_P1;PMS_P2;Temp;Humidity;BMP_temperature;BMP_pressure;BME280_temperature;BME280_humidity;BME280_pressure;Samples;Min_cycle;Max_cycle;Signal;HPM_P1;HPM_P2
2022/11/19 00:01:08;;;;;;;;;;;10.40;90.70;;;;;;5124010;27;20388;-66
2022/11/19 00:03:34;;;;;;;;;;;10.40;90.70;;;;;;5128820;27;19924;-65
2022/11/19 00:06:09;;;;;;;;;;;10.00;90.60;;;;;;5123972;27;19923;-65
2022/11/19 00:08:35;;;;;;;;;;;10.10;90.60;;;;;;5135395;27;19924;-66
2022/11/19 00:11:14;;;;;;;;;;;10.30;90.50;;;;;;5131494;27;20295;-65
2022/11/19 00:13:39;;;;;;;;;;;10.20;90.50;;;;;;5122157;27;19923;-65
2022/11/19 00:16:09;;;;;;;;;;;10.30;90.40;;;;;;5118253;27;19971;-69
2022/11/19 00:18:35;;;;;;;;;;;10.40;90.70;;;;;;5153353;27;19967;-66
2022/11/19 00:21:01;;;;;;;;;;;10.20;90.60;;;;;;5148896;27;19955;-67
2022/11/19 00:23:27;;;;;;;;;;;10.10;90.50;;;;;;5137912;27;19976;-66
2022/11/19 00:25:53;;;;;;;;;;;10.30;90.50;;;;;;5126399;27;19924;-68
2022/11/19 00:28:18;;;;;;;;;;;10.30;90.60;;;;;;5127482;27;20363;-66
2022/11/19 00:30:44;;;;;;;;;;;10.30;90.50;;;;;;5118869;27;19943;-66
2022/11/19 00:33:09;;;;;;;;;;;10.20;90.50;;;;;;5127813;27;19924;-66
2022/11/19 00:35:35;;;;;;;;;;;10.10;90.40;;;;;;5130373;27;19924;-66
2022/11/19 00:38:01;;;;;;;;;;;;;;;;;;5116285;27;19928;-65
2022/11/19 00:40:26;;;;;;;;;;;10.10;90.40;;;;;;5123402;27;19923;-66
2022/11/19 00:45:36;;;;;;;;;;;10.10;90.60;;;;;;5129017;27;19969;-65
2022/11/19 00:48:02;;;;;;;;;;;10.00;90.50;;;;;;5115963;27;19923;-65
2022/11/19 00:50:28;;;;;;;;;;;10.20;90.70;;;;;;5122897;27;20018;-66
2022/11/19 00:52:53;;;;;;;;;;;10.00;90.50;;;;;;5126793;27;19924;-65
2022/11/19 00:55:19;;;;;;;;;;;10.20;90.50;;;;;;5135191;27;19923;-66
2022/11/19 00:57:45;;;;;;;;;;;10.10;90.50;;;;;;5127848;27;19923;-66
2022/11/19 01:00:11;;;;;;;;;;;10.00;90.40;;;;;;5116110;27;19942;-67
2022/11/19 01:02:36;;;;;;;;;;;10.10;90.40;;;;;;5132116;27;19923;-66
2022/11/19 01:05:02;;;;;;;;;;;10.20;90.50;;;;;;5147463;27;19923;-67
2022/11/19 01:07:28;;;;;;;;;;;9.90;90.40;;;;;;5126563;27;20402;-66
2022/11/19 01:09:53;;;;;;;;;;;10.20;90.60;;;;;;5134593;27;19931;-65
2022/11/19 01:12:19;;;;;;;;;;;10.20;90.50;;;;;;5121070;27;19924;-67
2022/11/19 01:14:44;;;;;;;;;;;10.20;90.50;;;;;;5133501;27;19947;-69
2022/11/19 01:17:10;;;;;;;;;;;10.00;90.40;;;;;;5123329;27;19924;-65
2022/11/19 01:19:36;;;;;;;;;;;10.20;90.40;;;;;;5116587;27;19919;-66
2022/11/19 01:22:02;;;;;;;;;;;;;;;;;;5134841;27;20440;-66
2022/11/19 01:24:27;;;;;;;;;;;10.00;90.40;;;;;;5123210;27;19930;-66
2022/11/19 01:26:53;;;;;;;;;;;10.20;90.40;;;;;;5115783;27;20373;-66
2022/11/19 01:29:19;;;;;;;;;;;10.00;90.20;;;;;;5118083;27;19924;-65
2022/11/19 01:31:44;;;;;;;;;;;10.00;90.20;;;;;;5134957;27;19930;-66
2022/11/19 01:34:10;;;;;;;;;;;10.00;90.30;;;;;;5128799;27;19923;-66
2022/11/19 01:36:35;;;;;;;;;;;10.00;90.30;;;;;;5128729;27;20411;-65
2022/11/19 01:39:01;;;;;;;;;;;10.00;90.40;;;;;;5131499;27;19927;-65
2022/11/19 01:41:27;;;;;;;;;;;;;;;;;;5134209;27;19930;-67
2022/11/19 01:43:53;;;;;;;;;;;9.90;90.20;;;;;;5127234;27;19977;-66
2022/11/19 01:46:19;;;;;;;;;;;9.90;90.20;;;;;;5134894;27;20018;-72
2022/11/19 01:48:49;;;;;;;;;;;9.80;90.20;;;;;;5132392;27;20472;-66
2022/11/19 01:51:15;;;;;;;;;;;10.00;90.20;;;;;;5116046;27;20360;-66
2022/11/19 01:53:41;;;;;;;;;;;10.00;90.20;;;;;;5130631;27;19927;-66
2022/11/19 01:56:07;;;;;;;;;;;;;;;;;;5114877;27;20433;-66
2022/11/19 01:58:42;;;;;;;;;;;9.90;90.20;;;;;;5128389;27;19971;-65
2022/11/19 02:01:08;;;;;;;;;;;9.90;90.30;;;;;;5099675;28;19923;-66
2022/11/19 02:03:34;;;;;;;;;;;9.80;90.40;;;;;;5095946;28;19931;-66
2022/11/19 02:06:00;;;;;;;;;;;9.80;90.40;;;;;;5113392;27;19923;-66
2022/11/19 02:08:26;;;;;;;;;;;;;;;;;;5129638;27;19923;-67
2022/11/19 02:10:54;;;;;;;;;;;9.90;90.40;;;;;;5126519;27;20035;-67
2022/11/19 02:13:26;;;;;;;;;;;9.90;90.50;;;;;;5104935;28;20393;-65
2022/11/19 02:16:06;;;;;;;;;;;9.70;90.40;;;;;;5128428;27;19976;-67
2022/11/19 02:18:48;;;;;;;;;;;9.70;90.50;;;;;;5111118;28;19971;-68
2022/11/19 02:21:16;;;;;;;;;;;9.70;90.40;;;;;;5119596;27;19977;-70
2022/11/19 02:23:42;;;;;;;;;;;;;;;;;;5112847;27;19943;-67
2022/11/19 02:26:26;;;;;;;;;;;9.90;90.50;;;;;;5115979;27;19927;-71
2022/11/19 02:28:58;;;;;;;;;;;9.80;90.50;;;;;;5126638;27;20014;-65
2022/11/19 02:31:43;;;;;;;;;;;10.10;90.60;;;;;;5126638;27;19968;-66
2022/11/19 02:34:09;;;;;;;;;;;;;;;;;;5114284;28;19923;-67
2022/11/19 02:36:37;;;;;;;;;;;9.70;90.40;;;;;;5123805;27;19977;-68
2022/11/19 02:39:03;;;;;;;;;;;9.90;90.40;;;;;;5096216;28;20415;-65
2022/11/19 02:41:33;;;;;;;;;;;10.00;90.40;;;;;;5107403;28;19923;-69
2022/11/19 02:46:44;;;;;;;;;;;9.80;90.40;;;;;;5148662;27;20301;-65
2022/11/19 02:49:10;;;;;;;;;;;9.80;90.50;;;;;;5115228;28;20445;-65
2022/11/19 02:51:35;;;;;;;;;;;9.80;90.50;;;;;;5126415;28;19923;-65
2022/11/19 02:54:03;;;;;;;;;;;9.80;90.50;;;;;;5114878;28;19980;-66
2022/11/19 02:56:44;;;;;;;;;;;10.00;90.60;;;;;;5108481;28;19927;-66
2022/11/19 03:04:38;;;;;;;;;;;9.70;90.60;;;;;;5129677;28;19923;-71
2022/11/19 03:07:04;;;;;;;;;;;;;;;;;;5111976;28;19924;-67
2022/11/19 03:09:30;;;;;;;;;;;9.90;90.60;;;;;;5129336;28;19928;-66
2022/11/19 03:11:56;;;;;;;;;;;;;;;;;;5100891;28;19923;-66
2022/11/19 03:17:28;;;;;;;;;;;9.90;90.70;;;;;;5118947;28;19928;-68
2022/11/19 03:20:29;;;;;;;;;;;9.60;90.60;;;;;;5101959;28;19924;-66
2022/11/19 03:22:54;;;;;;;;;;;9.80;90.70;;;;;;5054669;28;19928;-66
2022/11/19 03:25:20;;;;;;;;;;;10.10;90.70;;;;;;5053332;28;20090;-66
2022/11/19 03:27:46;;;;;;;;;;;9.80;90.70;;;;;;5053324;28;19962;-70
2022/11/19 03:30:13;;;;;;;;;;;9.90;90.70;;;;;;5054578;28;20373;-68
2022/11/19 03:32:48;;;;;;;;;;;9.90;90.70;;;;;;5056726;28;19928;-66
2022/11/19 03:35:34;;;;;;;;;;;9.90;90.70;;;;;;5057043;28;19999;-66
2022/11/19 03:38:01;;;;;;;;;;;9.80;90.70;;;;;;5056104;28;19972;-66
2022/11/19 03:40:27;;;;;;;;;;;;;;;;;;5055992;28;19960;-66
2022/11/19 03:42:53;;;;;;;;;;;9.80;90.80;;;;;;5057483;28;19968;-66
2022/11/19 03:45:19;;;;;;;;;;;9.80;90.80;;;;;;5056027;28;20428;-70
2022/11/19 03:47:45;;;;;;;;;;;9.80;90.80;;;;;;5056805;28;19925;-67
2022/11/19 03:50:15;;;;;;;;;;;9.80;90.90;;;;;;5073991;28;19993;-65
2022/11/19 03:52:41;;;;;;;;;;;9.70;90.90;;;;;;5036721;28;19925;-67
2022/11/19 03:55:07;;;;;;;;;;;9.60;90.50;;;;;;5041337;28;19925;-70
2022/11/19 03:57:33;;;;;;;;;;;9.70;90.90;;;;;;5106219;27;20300;-66
2022/11/19 03:59:58;;;;;;;;;;;9.90;90.90;;;;;;5124147;27;19924;-70
2022/11/19 04:02:24;;;;;;;;;;;;;;;;;;5132347;27;19923;-68
2022/11/19 04:04:50;;;;;;;;;;;9.80;90.50;;;;;;5136124;27;19975;-69
2022/11/19 04:07:19;;;;;;;;;;;9.70;90.80;;;;;;5126465;27;19931;-71
2022/11/19 04:09:45;;;;;;;;;;;9.70;90.70;;;;;;5124248;27;19927;-68
2022/11/19 04:12:15;;;;;;;;;;;9.90;90.80;;;;;;5116697;27;19924;-68
2022/11/19 04:14:41;;;;;;;;;;;;;;;;;;5117784;27;20326;-68
2022/11/19 04:17:06;;;;;;;;;;;9.90;90.70;;;;;;5135067;27;20018;-73
2022/11/19 04:19:32;;;;;;;;;;;9.80;90.70;;;;;;5136407;27;20406;-71
2022/11/19 04:21:58;;;;;;;;;;;10.00;90.80;;;;;;5135356;27;20384;-72
2022/11/19 04:24:23;;;;;;;;;;;9.70;90.60;;;;;;5153450;27;19920;-67
2022/11/19 04:26:49;;;;;;;;;;;9.60;90.60;;;;;;5128564;27;20365;-68
2022/11/19 04:29:14;;;;;;;;;;;9.70;90.60;;;;;;5115891;27;20006;-72
2022/11/19 04:31:40;;;;;;;;;;;9.70;90.60;;;;;;5132502;27;19924;-70
2022/11/19 04:34:06;;;;;;;;;;;;;;;;;;5136849;27;20445;-70
2022/11/19 04:36:32;;;;;;;;;;;9.70;90.60;;;;;;5135780;27;19931;-70
2022/11/19 04:38:58;;;;;;;;;;;;;;;;;;5134747;27;19924;-72
2022/11/19 04:41:24;;;;;;;;;;;9.90;90.70;;;;;;5134128;27;19971;-69
2022/11/19 04:43:49;;;;;;;;;;;9.70;90.60;;;;;;5123625;27;19977;-72
2022/11/19 04:46:15;;;;;;;;;;;9.70;90.60;;;;;;5131656;27;19924;-67
2022/11/19 04:48:40;;;;;;;;;;;9.60;90.50;;;;;;5115713;27;19934;-71
2022/11/19 04:51:06;;;;;;;;;;;9.80;90.30;;;;;;5121106;27;20010;-70
2022/11/19 04:53:32;;;;;;;;;;;9.80;90.60;;;;;;5124035;27;20014;-66
2022/11/19 04:55:57;;;;;;;;;;;9.60;90.60;;;;;;5103778;28;19926;-68
2022/11/19 04:58:23;;;;;;;;;;;9.90;90.60;;;;;;5115395;28;19924;-67
2022/11/19 05:00:48;;;;;;;;;;;9.50;90.50;;;;;;5122034;27;19928;-66
2022/11/19 05:03:15;;;;;;;;;;;;;;;;;;5117224;27;19924;-68
2022/11/19 05:05:40;;;;;;;;;;;9.30;90.50;;;;;;5121062;27;20296;-66
2022/11/19 05:08:06;;;;;;;;;;;;;;;;;;5133966;27;19924;-66
2022/11/19 05:10:32;;;;;;;;;;;9.60;90.50;;;;;;5130803;27;19928;-66
2022/11/19 05:12:57;;;;;;;;;;;9.50;90.40;;;;;;5133996;27;19931;-66
2022/11/19 05:15:23;;;;;;;;;;;9.70;90.50;;;;;;5131757;27;19984;-67
2022/11/19 05:17:49;;;;;;;;;;;9.60;90.50;;;;;;5111048;27;19978;-66
2022/11/19 05:20:15;;;;;;;;;;;;;;;;;;5131557;27;19972;-65
2022/11/19 05:22:40;;;;;;;;;;;9.60;90.60;;;;;;5125687;27;19924;-67
2022/11/19 05:25:06;;;;;;;;;;;9.50;90.60;;;;;;5130250;27;19927;-73
2022/11/19 05:27:31;;;;;;;;;;;9.80;90.70;;;;;;5117943;27;19930;-73
2022/11/19 05:29:57;;;;;;;;;;;9.50;90.70;;;;;;5130643;27;19923;-70
2022/11/19 05:32:23;;;;;;;;;;;9.70;90.60;;;;;;5116509;27;19923;-68
2022/11/19 05:34:48;;;;;;;;;;;9.60;90.70;;;;;;5132266;27;19931;-70
2022/11/19 05:37:14;;;;;;;;;;;9.70;90.80;;;;;;5131555;27;19923;-69
2022/11/19 05:39:40;;;;;;;;;;;9.60;90.80;;;;;;5128139;27;19923;-72
2022/11/19 05:42:05;;;;;;;;;;;9.80;90.90;;;;;;5111306;28;19923;-73
2022/11/19 05:44:31;;;;;;;;;;;9.70;90.90;;;;;;5126570;27;19939;-71
2022/11/19 05:46:58;;;;;;;;;;;9.70;90.80;;;;;;5131342;27;19931;-72
2022/11/19 05:49:24;;;;;;;;;;;9.60;90.80;;;;;;5134795;27;20296;-71
2022/11/19 05:51:50;;;;;;;;;;;;;;;;;;5126472;27;19931;-66
2022/11/19 05:54:16;;;;;;;;;;;9.80;90.80;;;;;;5114627;27;19924;-71
2022/11/19 05:56:41;;;;;;;;;;;9.60;90.70;;;;;;5097457;27;19924;-72
2022/11/19 05:59:07;;;;;;;;;;;;;;;;;;5135978;27;20365;-72
2022/11/19 06:01:33;;;;;;;;;;;10.00;90.90;;;;;;5124267;27;20381;-68
2022/11/19 06:03:59;;;;;;;;;;;9.60;90.80;;;;;;5116829;27;19920;-70
2022/11/19 06:06:25;;;;;;;;;;;9.70;90.80;;;;;;5122535;27;19924;-68
2022/11/19 06:08:51;;;;;;;;;;;9.80;90.80;;;;;;5115173;27;19934;-71
2022/11/19 06:14:00;;;;;;;;;;;9.50;90.70;;;;;;5118546;27;19934;-68
2022/11/19 06:16:26;;;;;;;;;;;9.60;90.40;;;;;;5131159;27;20304;-68
2022/11/19 06:18:52;;;;;;;;;;;9.40;90.70;;;;;;5132179;27;19928;-72
2022/11/19 06:21:18;;;;;;;;;;;9.50;90.70;;;;;;5134163;27;19923;-72
2022/11/19 06:23:43;;;;;;;;;;;9.30;90.60;;;;;;5131898;27;19974;-68
2022/11/19 06:26:09;;;;;;;;;;;9.70;90.80;;;;;;5123132;27;19967;-70
2022/11/19 06:28:35;;;;;;;;;;;;;;;;;;5119061;27;19923;-73
2022/11/19 06:31:01;;;;;;;;;;;9.60;90.80;;;;;;5114652;28;19973;-67
2022/11/19 06:33:27;;;;;;;;;;;9.70;90.80;;;;;;5127606;27;19927;-72
2022/11/19 06:35:53;;;;;;;;;;;9.70;90.80;;;;;;5130698;27;20014;-71
2022/11/19 06:38:18;;;;;;;;;;;9.80;90.80;;;;;;5127695;27;20412;-66
2022/11/19 06:40:44;;;;;;;;;;;9.90;90.40;;;;;;5114267;28;20014;-71
2022/11/19 06:43:10;;;;;;;;;;;9.80;90.90;;;;;;5117638;27;19924;-71
2022/11/19 06:45:35;;;;;;;;;;;9.60;90.80;;;;;;5114687;28;20425;-71
2022/11/19 06:48:01;;;;;;;;;;;9.80;90.80;;;;;;5130417;28;19928;-71
2022/11/19 06:50:26;;;;;;;;;;;9.70;90.90;;;;;;5132042;27;20280;-68
2022/11/19 06:52:52;;;;;;;;;;;;;;;;;;5131977;27;19924;-68
2022/11/19 06:55:18;;;;;;;;;;;9.40;90.70;;;;;;5113945;28;19924;-70
2022/11/19 06:57:44;;;;;;;;;;;9.70;91.00;;;;;;5121145;28;19930;-66
2022/11/19 07:00:10;;;;;;;;;;;9.80;91.00;;;;;;5105268;28;19931;-70
2022/11/19 07:02:36;;;;;;;;;;;10.00;90.90;;;;;;5116089;28;19931;-69
2022/11/19 07:05:02;;;;;;;;;;;9.70;90.80;;;;;;5113601;28;19924;-65
2022/11/19 07:07:28;;;;;;;;;;;9.90;90.70;;;;;;5103327;28;20018;-66
2022/11/19 07:09:54;;;;;;;;;;;10.00;90.80;;;;;;5111268;28;20022;-69
2022/11/19 07:12:19;;;;;;;;;;;10.20;91.00;;;;;;5094321;27;19930;-67
2022/11/19 07:14:45;;;;;;;;;;;9.70;90.80;;;;;;5134890;27;19923;-64
2022/11/19 07:17:11;;;;;;;;;;;9.80;90.90;;;;;;5130065;27;19969;-66
2022/11/19 07:19:36;;;;;;;;;;;9.90;90.90;;;;;;5126383;27;19931;-67
2022/11/19 07:22:02;;;;;;;;;;;10.10;90.90;;;;;;5119221;27;19931;-66
2022/11/19 07:24:28;;;;;;;;;;;9.90;90.80;;;;;;5134897;27;19931;-66
2022/11/19 07:26:54;;;;;;;;;;;10.00;90.90;;;;;;5118182;27;20280;-65
2022/11/19 07:29:21;;;;;;;;;;;9.80;90.90;;;;;;5124236;27;19927;-66
2022/11/19 07:31:49;;;;;;;;;;;9.80;90.90;;;;;;5137086;27;19930;-66
2022/11/19 07:34:15;;;;;;;;;;;;;;;;;;5125889;27;19973;-65
2022/11/19 07:36:41;;;;;;;;;;;;;;;;;;5132545;27;19932;-66
2022/11/19 07:39:07;;;;;;;;;;;10.00;90.80;;;;;;5124588;27;19924;-66
2022/11/19 07:44:17;;;;;;;;;;;10.10;90.70;;;;;;5137090;27;19924;-69
2022/11/19 07:46:42;;;;;;;;;;;9.80;90.50;;;;;;5136672;27;20425;-66
2022/11/19 07:49:08;;;;;;;;;;;9.80;91.10;;;;;;5135633;27;19928;-66
2022/11/19 07:51:34;;;;;;;;;;;9.80;91.20;;;;;;5125669;27;19979;-65
2022/11/19 07:53:59;;;;;;;;;;;10.00;91.10;;;;;;5117122;28;20412;-67
2022/11/19 07:56:25;;;;;;;;;;;10.00;90.90;;;;;;5136105;27;19929;-66
2022/11/19 07:58:51;;;;;;;;;;;10.30;91.00;;;;;;5149007;27;19923;-66
2022/11/19 08:01:18;;;;;;;;;;;10.00;90.90;;;;;;5099221;28;20369;-67
2022/11/19 08:03:45;;;;;;;;;;;10.10;90.90;;;;;;5115857;28;19974;-64
2022/11/19 08:06:11;;;;;;;;;;;10.20;90.90;;;;;;5098853;28;19928;-66
2022/11/19 08:08:37;;;;;;;;;;;10.20;90.90;;;;;;5105082;27;19923;-65
2022/11/19 08:11:03;;;;;;;;;;;;;;;;;;5130280;27;20034;-71
2022/11/19 08:13:29;;;;;;;;;;;10.30;90.90;;;;;;5117509;27;19931;-67
2022/11/19 08:15:58;;;;;;;;;;;10.00;90.80;;;;;;5116895;28;19923;-68
2022/11/19 08:18:24;;;;;;;;;;;10.10;90.90;;;;;;5120794;27;19923;-68
2022/11/19 08:20:50;;;;;;;;;;;10.00;90.80;;;;;;5135319;27;20023;-68
2022/11/19 08:23:15;;;;;;;;;;;10.30;90.90;;;;;;5135933;27;19984;-72
2022/11/19 08:25:41;;;;;;;;;;;10.20;90.70;;;;;;5123929;27;20018;-68
2022/11/19 08:28:07;;;;;;;;;;;10.30;90.80;;;;;;5120341;27;20327;-68
2022/11/19 08:30:33;;;;;;;;;;;10.30;90.90;;;;;;5137227;27;19924;-68
2022/11/19 08:32:59;;;;;;;;;;;10.40;90.90;;;;;;5137188;27;19923;-68
2022/11/19 08:35:24;;;;;;;;;;;10.10;90.70;;;;;;5135845;27;20307;-68
2022/11/19 08:37:50;;;;;;;;;;;10.00;90.70;;;;;;5135796;27;19927;-67
2022/11/19 08:40:16;;;;;;;;;;;10.20;90.70;;;;;;5134703;27;19968;-70
2022/11/19 08:42:59;;;;;;;;;;;10.30;90.80;;;;;;5117194;27;20014;-71
2022/11/19 08:45:26;;;;;;;;;;;10.40;90.80;;;;;;5135998;27;20329;-66
2022/11/19 08:47:52;;;;;;;;;;;10.20;90.80;;;;;;5135526;27;19923;-67
2022/11/19 08:50:18;;;;;;;;;;;10.50;90.90;;;;;;5119681;27;19923;-65
2022/11/19 08:52:43;;;;;;;;;;;10.40;90.80;;;;;;5115652;27;19930;-66
2022/11/19 08:55:09;;;;;;;;;;;10.60;90.80;;;;;;5115105;28;20438;-66
2022/11/19 08:57:35;;;;;;;;;;;10.40;90.80;;;;;;5124377;27;19923;-66
2022/11/19 09:00:00;;;;;;;;;;;;;;;;;;5119485;27;19927;-66
2022/11/19 09:02:26;;;;;;;;;;;10.20;90.70;;;;;;5116887;28;20297;-65
2022/11/19 09:04:52;;;;;;;;;;;10.20;90.70;;;;;;5115521;27;19923;-66
2022/11/19 09:07:18;;;;;;;;;;;10.30;90.80;;;;;;5115801;28;19976;-65
2022/11/19 09:09:43;;;;;;;;;;;10.40;90.70;;;;;;5115025;28;19928;-65
2022/11/19 09:12:09;;;;;;;;;;;10.10;90.70;;;;;;5115767;28;19930;-66
2022/11/19 09:14:35;;;;;;;;;;;10.30;90.70;;;;;;5125201;27;19930;-66
2022/11/19 09:17:00;;;;;;;;;;;10.10;90.60;;;;;;5120035;27;19923;-65
2022/11/19 09:19:26;;;;;;;;;;;10.30;90.60;;;;;;5115625;28;20068;-66
2022/11/19 09:21:52;;;;;;;;;;;10.30;90.60;;;;;;5114641;28;19924;-65
2022/11/19 09:24:17;;;;;;;;;;;10.20;90.60;;;;;;5115355;27;20414;-66
2022/11/19 09:26:43;;;;;;;;;;;10.00;90.60;;;;;;5133956;27;19976;-66
2022/11/19 09:29:09;;;;;;;;;;;10.00;90.60;;;;;;5134227;27;19968;-65
2022/11/19 09:31:34;;;;;;;;;;;10.10;90.60;;;;;;5134696;27;19976;-66
2022/11/19 09:34:01;;;;;;;;;;;;;;;;;;5125376;27;19981;-66
2022/11/19 09:36:26;;;;;;;;;;;9.90;90.60;;;;;;5115609;28;19924;-66
2022/11/19 09:38:55;;;;;;;;;;;10.10;90.60;;;;;;5115869;28;19924;-66
2022/11/19 09:41:32;;;;;;;;;;;10.10;90.60;;;;;;5113961;28;19927;-66
2022/11/19 09:44:13;;;;;;;;;;;10.00;90.60;;;;;;5113585;27;20014;-66
2022/11/19 09:46:58;;;;;;;;;;;10.20;90.60;;;;;;5114951;28;19977;-66
2022/11/19 09:49:27;;;;;;;;;;;10.30;90.60;;;;;;5117203;27;20030;-66
2022/11/19 09:52:02;;;;;;;;;;;10.40;90.60;;;;;;5122175;27;20016;-66
2022/11/19 09:54:28;;;;;;;;;;;10.10;90.50;;;;;;5131774;27;19924;-65
2022/11/19 09:56:54;;;;;;;;;;;10.30;90.50;;;;;;5133321;27;19924;-65
2022/11/19 09:59:30;;;;;;;;;;;10.20;90.50;;;;;;5150131;27;20091;-67
2022/11/19 10:01:56;;;;;;;;;;;10.10;90.50;;;;;;5135659;27;19956;-66
2022/11/19 10:04:22;;;;;;;;;;;10.40;90.50;;;;;;5130593;27;20388;-66
2022/11/19 10:06:48;;;;;;;;;;;10.30;90.50;;;;;;5120464;27;19924;-65
2022/11/19 10:09:14;;;;;;;;;;;;;;;;;;5135237;27;19946;-65
2022/11/19 10:11:46;;;;;;;;;;;10.50;90.60;;;;;;5133953;27;19953;-65
2022/11/19 10:14:20;;;;;;;;;;;10.40;90.50;;;;;;5132924;27;20377;-67
2022/11/19 10:16:46;;;;;;;;;;;10.50;90.60;;;;;;5110307;28;20347;-66
2022/11/19 10:19:12;;;;;;;;;;;;;;;;;;5130414;27;20023;-65
2022/11/19 10:21:40;;;;;;;;;;;10.50;90.40;;;;;;5114822;28;20011;-66
2022/11/19 10:24:16;;;;;;;;;;;10.80;90.60;;;;;;5113970;27;19969;-65
2022/11/19 10:26:42;;;;;;;;;;;;;;;;;;5096410;28;20392;-66
2022/11/19 10:29:15;;;;;;;;;;;10.80;90.30;;;;;;5132625;27;20006;-65
2022/11/19 10:31:41;;;;;;;;;;;;;;;;;;5115513;27;19927;-66
2022/11/19 10:34:09;;;;;;;;;;;10.70;89.00;;;;;;5133855;27;19968;-66
2022/11/19 10:36:37;;;;;;;;;;;10.80;88.60;;;;;;5135173;27;19923;-66
2022/11/19 10:39:06;;;;;;;;;;;;;;;;;;5115461;27;19924;-66
2022/11/19 10:41:36;;;;;;;;;;;10.80;87.60;;;;;;5131939;27;19923;-65
2022/11/19 10:44:35;;;;;;;;;;;10.70;87.20;;;;;;5115465;28;20014;-65
2022/11/19 10:46:57;;;;;;;;;;;;;;;;;;5126355;28;20293;-66
2022/11/19 10:49:22;;;;;;;;;;;10.80;86.50;;;;;;5114671;28;19923;-69
2022/11/19 10:51:48;;;;;;;;;;;10.70;86.30;;;;;;5131654;28;19947;-66
2022/11/19 10:54:21;;;;;;;;;;;10.60;86.10;;;;;;5134598;27;20365;-66
2022/11/19 10:56:47;;;;;;;;;;;;;;;;;;5133334;28;19923;-66
2022/11/19 10:59:17;;;;;;;;;;;10.90;86.30;;;;;;5124355;28;19969;-65
2022/11/19 11:01:43;;;;;;;;;;;11.10;86.50;;;;;;5132303;28;20206;-65
2022/11/19 11:04:16;;;;;;;;;;;11.10;86.80;;;;;;5134908;27;19927;-68
2022/11/19 11:06:49;;;;;;;;;;;11.00;86.70;;;;;;5133594;28;19924;-66
2022/11/19 11:09:27;;;;;;;;;;;11.10;86.40;;;;;;5134892;27;19939;-66
2022/11/19 11:14:52;;;;;;;;;;;11.30;85.60;;;;;;5129345;28;20276;-65
2022/11/19 11:17:23;;;;;;;;;;;11.10;86.40;;;;;;5113938;28;19924;-68
2022/11/19 11:19:56;;;;;;;;;;;11.10;85.90;;;;;;5095738;28;19923;-69
2022/11/19 11:22:22;;;;;;;;;;;11.10;85.80;;;;;;5110370;28;20287;-72
2022/11/19 11:24:47;;;;;;;;;;;11.30;85.50;;;;;;5141981;27;20003;-65
2022/11/19 11:27:16;;;;;;;;;;;11.40;85.70;;;;;;5128232;28;19975;-68
2022/11/19 11:29:42;;;;;;;;;;;11.40;85.90;;;;;;5112554;28;20385;-67
2022/11/19 11:32:27;;;;;;;;;;;11.40;85.80;;;;;;5130080;27;19923;-66
2022/11/19 11:34:53;;;;;;;;;;;11.40;85.90;;;;;;5131748;27;20088;-66
2022/11/19 11:37:21;;;;;;;;;;;;;;;;;;5113998;28;19927;-67
2022/11/19 11:39:50;;;;;;;;;;;11.30;86.40;;;;;;5113802;28;20385;-68
2022/11/19 11:42:18;;;;;;;;;;;11.40;86.30;;;;;;5112596;28;19930;-67
2022/11/19 11:44:57;;;;;;;;;;;11.50;86.00;;;;;;5095999;28;19923;-66
2022/11/19 11:47:25;;;;;;;;;;;11.60;86.20;;;;;;5115305;27;20022;-66
2022/11/19 11:50:03;;;;;;;;;;;11.60;86.00;;;;;;5126089;28;20373;-67
2022/11/19 11:52:47;;;;;;;;;;;11.40;86.20;;;;;;5135544;27;19974;-67
2022/11/19 11:55:13;;;;;;;;;;;;;;;;;;5136639;27;19930;-67
2022/11/19 11:58:09;;;;;;;;;;;11.80;86.80;;;;;;5116629;27;19931;-68
2022/11/19 12:00:35;;;;;;;;;;;;;;;;;;5097903;28;20412;-67
2022/11/19 12:03:05;;;;;;;;;;;11.70;86.50;;;;;;5117138;28;19928;-67
2022/11/19 12:05:49;;;;;;;;;;;11.70;87.00;;;;;;5120057;27;19928;-67
2022/11/19 12:08:33;;;;;;;;;;;11.80;87.10;;;;;;5135293;27;19947;-67
2022/11/19 12:11:18;;;;;;;;;;;11.90;87.20;;;;;;5119213;27;20372;-67
2022/11/19 12:13:46;;;;;;;;;;;11.70;87.20;;;;;;5135846;27;19972;-67
2022/11/19 12:16:12;;;;;;;;;;;11.90;87.40;;;;;;5104248;28;19924;-67
2022/11/19 12:18:38;;;;;;;;;;;11.80;87.50;;;;;;5118038;27;19931;-67
2022/11/19 12:21:11;;;;;;;;;;;11.60;87.50;;;;;;5153704;27;19927;-66
2022/11/19 12:23:55;;;;;;;;;;;11.80;87.70;;;;;;5118781;27;19924;-66
2022/11/19 12:26:24;;;;;;;;;;;11.60;87.70;;;;;;5119051;27;19923;-68
2022/11/19 12:28:57;;;;;;;;;;;11.60;87.90;;;;;;5122901;27;19927;-66
2022/11/19 12:31:39;;;;;;;;;;;11.50;87.80;;;;;;5118871;27;19924;-65
2022/11/19 12:34:20;;;;;;;;;;;11.60;88.00;;;;;;5133061;27;19958;-67
2022/11/19 12:36:47;;;;;;;;;;;11.40;87.90;;;;;;5116607;27;19924;-71
2022/11/19 12:39:25;;;;;;;;;;;11.30;87.80;;;;;;5124713;27;19931;-68
2022/11/19 12:41:54;;;;;;;;;;;11.60;88.10;;;;;;5115213;28;19923;-68
2022/11/19 12:44:26;;;;;;;;;;;11.30;88.20;;;;;;5116297;28;19978;-66
2022/11/19 12:46:55;;;;;;;;;;;11.40;88.20;;;;;;5131612;27;19923;-65
2022/11/19 12:49:21;;;;;;;;;;;11.30;88.20;;;;;;5123920;27;19928;-66
2022/11/19 12:51:51;;;;;;;;;;;11.50;88.50;;;;;;5114867;28;19987;-71
2022/11/19 12:54:17;;;;;;;;;;;11.70;88.70;;;;;;5112912;27;19924;-67
2022/11/19 12:56:49;;;;;;;;;;;11.40;88.50;;;;;;5145396;27;20006;-67
2022/11/19 12:59:15;;;;;;;;;;;;;;;;;;5114389;27;19949;-67
2022/11/19 13:01:41;;;;;;;;;;;;;;;;;;5113730;27;19928;-66
2022/11/19 13:04:13;;;;;;;;;;;11.50;88.80;;;;;;5114151;28;19974;-66
2022/11/19 13:06:38;;;;;;;;;;;11.40;88.60;;;;;;5131125;27;20388;-66
2022/11/19 13:09:06;;;;;;;;;;;11.60;88.80;;;;;;5144424;27;19938;-70
2022/11/19 13:11:45;;;;;;;;;;;11.20;88.80;;;;;;5097974;28;19923;-69
2022/11/19 13:14:20;;;;;;;;;;;11.30;88.90;;;;;;5111091;27;20295;-69
2022/11/19 13:16:45;;;;;;;;;;;11.30;89.20;;;;;;5113566;28;19924;-67
2022/11/19 13:19:11;;;;;;;;;;;11.40;89.20;;;;;;5114692;28;19923;-68
2022/11/19 13:21:37;;;;;;;;;;;;;;;;;;5117121;27;20389;-65
2022/11/19 13:24:17;;;;;;;;;;;11.40;89.10;;;;;;5117446;27;19928;-67
2022/11/19 13:26:43;;;;;;;;;;;11.50;88.60;;;;;;5131099;27;19923;-67
2022/11/19 13:29:31;;;;;;;;;;;11.50;89.30;;;;;;5114923;27;19923;-67
2022/11/19 13:32:16;;;;;;;;;;;11.40;89.50;;;;;;5113251;27;19974;-66
2022/11/19 13:34:44;;;;;;;;;;;11.50;89.50;;;;;;5096867;28;19924;-66
2022/11/19 13:37:13;;;;;;;;;;;11.50;89.50;;;;;;5114295;27;19920;-66
2022/11/19 13:39:39;;;;;;;;;;;;;;;;;;5101420;27;19923;-68
2022/11/19 13:44:49;;;;;;;;;;;11.30;89.80;;;;;;5119288;27;19970;-65
2022/11/19 13:47:15;;;;;;;;;;;11.30;89.90;;;;;;5114719;27;20414;-66
2022/11/19 13:49:52;;;;;;;;;;;11.30;89.90;;;;;;5126483;27;19923;-75
2022/11/19 13:52:20;;;;;;;;;;;11.50;90.10;;;;;;5115324;27;19949;-68
2022/11/19 13:54:45;;;;;;;;;;;11.10;89.80;;;;;;5132904;27;19963;-70
2022/11/19 13:57:25;;;;;;;;;;;11.30;90.10;;;;;;5110791;28;20420;-70
2022/11/19 13:59:51;;;;;;;;;;;11.50;90.10;;;;;;5096441;28;20001;-70
2022/11/19 14:02:28;;;;;;;;;;;11.40;90.00;;;;;;5114995;27;19966;-68
2022/11/19 14:04:54;;;;;;;;;;;;;;;;;;5136951;27;19924;-67
2022/11/19 14:07:23;;;;;;;;;;;11.30;89.20;;;;;;5122007;27;19928;-68
2022/11/19 14:09:49;;;;;;;;;;;;;;;;;;5103486;28;19972;-66
2022/11/19 14:12:17;;;;;;;;;;;11.20;88.40;;;;;;5132146;27;20323;-66
2022/11/19 14:26:49;;;;;;;;;;;11.10;87.80;;;;;;5113385;27;19927;-68
2022/11/19 14:29:14;;;;;;;;;;;10.90;87.60;;;;;;5111432;27;19931;-65
2022/11/19 14:31:58;;;;;;;;;;;10.70;87.80;;;;;;5113192;28;19931;-67
2022/11/19 14:34:33;;;;;;;;;;;11.00;88.20;;;;;;5122232;27;20019;-67
2022/11/19 14:36:59;;;;;;;;;;;10.80;88.20;;;;;;5133724;27;20447;-65
2022/11/19 14:39:26;;;;;;;;;;;11.20;88.60;;;;;;5105450;28;19945;-66
2022/11/19 14:42:10;;;;;;;;;;;10.80;88.60;;;;;;5114474;27;19923;-64
2022/11/19 14:44:36;;;;;;;;;;;10.90;88.60;;;;;;5110411;27;19924;-66
2022/11/19 14:47:17;;;;;;;;;;;10.90;88.80;;;;;;5112988;28;20028;-64
2022/11/19 14:49:44;;;;;;;;;;;10.90;89.00;;;;;;5130337;28;20018;-65
2022/11/19 14:52:17;;;;;;;;;;;11.10;89.20;;;;;;5113549;28;19928;-63
2022/11/19 14:54:43;;;;;;;;;;;10.90;89.10;;;;;;5128305;28;19934;-67
2022/11/19 14:57:18;;;;;;;;;;;11.00;89.40;;;;;;5114655;28;20381;-67
2022/11/19 14:59:44;;;;;;;;;;;11.00;89.40;;;;;;5114058;28;19927;-68
2022/11/19 15:02:22;;;;;;;;;;;11.00;89.40;;;;;;5093085;28;19933;-68
2022/11/19 15:04:58;;;;;;;;;;;11.10;89.60;;;;;;5131081;27;19939;-69
2022/11/19 15:07:25;;;;;;;;;;;10.90;89.70;;;;;;5133306;28;19949;-68
2022/11/19 15:10:10;;;;;;;;;;;10.70;89.80;;;;;;5133576;28;19924;-68
2022/11/19 15:12:41;;;;;;;;;;;10.70;89.90;;;;;;5133170;28;19923;-65
2022/11/19 15:15:19;;;;;;;;;;;11.00;90.00;;;;;;5129495;28;19928;-64
2022/11/19 15:17:45;;;;;;;;;;;;;;;;;;5120603;28;20327;-68
2022/11/19 15:20:29;;;;;;;;;;;11.10;90.20;;;;;;5132803;28;19924;-65